sensor_id;sensor_type;location;lat;lon;timestamp;pressure;altitude;pressure_sealevel;temperature;humidity
54980;BME280;44101;50.462;30.432;2022-10-17T10:31:38;102263.50;;;13.38;53.11
54980;BME280;44101;50.462;30.432;2022-10-17T10:34:21;102244.53;;;13.38;53.20
54980;BME280;44101;50.462;30.432;2022-10-17T10:36:52;102185.66;;;13.29;52.75
54980;BME280;44101;50.462;30.432;2022-10-17T10:41:50;102210.66;;;13.44;52.56
54980;BME280;44101;50.462;30.432;2022-10-17T10:44:17;102241.38;;;13.56;52.11
54980;BME280;44101;50.462;30.432;2022-10-17T10:46:46;102278.09;;;13.71;52.30
54980;BME280;44101;50.462;30.432;2022-10-17T10:49:28;102291.16;;;13.78;52.12
54980;BME280;44101;50.462;30.432;2022-10-17T10:51:54;102249.88;;;13.74;51.49
54980;BME280;44101;50.462;30.432;2022-10-17T10:54:26;102212.28;;;13.69;51.50
54980;BME280;44101;50.462;30.432;2022-10-17T10:56:59;102229.66;;;13.78;51.63
54980;BME280;44101;50.462;30.432;2022-10-17T11:08:11;102183.63;;;13.88;51.48
54980;BME280;44101;50.462;30.432;2022-10-17T11:20:46;102199.56;;;14.14;50.94
54980;BME280;44101;50.462;30.432;2022-10-17T11:23:19;102174.16;;;14.15;49.84
54980;BME280;44101;50.462;30.432;2022-10-17T11:25:50;102164.28;;;14.14;50.23
54980;BME280;44101;50.462;30.432;2022-10-17T11:28:21;102183.38;;;14.24;50.22
54980;BME280;44101;50.462;30.432;2022-10-17T11:30:56;102181.13;;;14.29;49.88
54980;BME280;44101;50.462;30.432;2022-10-17T11:33:34;102158.69;;;14.27;50.12
54980;BME280;44101;50.462;30.432;2022-10-17T11:36:05;102187.75;;;14.36;49.75
54980;BME280;44101;50.462;30.432;2022-10-17T11:41:30;102214.09;;;14.57;49.08
54980;BME280;44101;50.462;30.432;2022-10-17T11:47:39;102224.75;;;14.70;48.99
54980;BME280;44101;50.462;30.432;2022-10-17T11:50:34;102195.13;;;14.67;49.09
54980;BME280;44101;50.462;30.432;2022-10-17T11:53:14;102166.38;;;14.64;48.91
54980;BME280;44101;50.462;30.432;2022-10-17T11:55:41;102181.88;;;14.74;48.74
54980;BME280;44101;50.462;30.432;2022-10-17T11:58:21;102161.91;;;14.75;49.06
54980;BME280;44101;50.462;30.432;2022-10-17T12:06:33;102186.47;;;14.95;48.51
54980;BME280;44101;50.462;30.432;2022-10-17T12:11:56;102154.44;;;14.98;48.33
54980;BME280;44101;50.462;30.432;2022-10-17T12:14:38;102161.94;;;15.06;47.91
54980;BME280;44101;50.462;30.432;2022-10-17T12:17:32;102141.19;;;15.05;47.67
54980;BME280;44101;50.462;30.432;2022-10-17T12:20:33;102119.44;;;15.05;47.34
54980;BME280;44101;50.462;30.432;2022-10-17T12:25:48;102141.50;;;15.22;48.04
54980;BME280;44101;50.462;30.432;2022-10-17T12:28:25;102176.63;;;15.35;47.06
54980;BME280;44101;50.462;30.432;2022-10-17T12:30:56;102177.09;;;15.40;47.21
54980;BME280;44101;50.462;30.432;2022-10-17T12:33:32;102153.75;;;15.37;47.28
54980;BME280;44101;50.462;30.432;2022-10-17T12:58:00;102124.63;;;15.79;46.19
54980;BME280;44101;50.462;30.432;2022-10-17T13:02:57;102117.59;;;15.86;45.91
54980;BME280;44101;50.462;30.432;2022-10-17T13:05:29;102096.97;;;15.83;45.29
54980;BME280;44101;50.462;30.432;2022-10-17T13:07:57;102062.88;;;15.79;45.12
54980;BME280;44101;50.462;30.432;2022-10-17T13:10:28;102013.78;;;15.71;45.32
54980;BME280;44101;50.462;30.432;2022-10-17T13:14:00;101980.56;;;15.67;45.61
54980;BME280;44101;50.462;30.432;2022-10-17T13:16:00;101956.22;;;15.66;45.30
54980;BME280;44101;50.462;30.432;2022-10-17T13:18:28;101964.66;;;15.72;44.84
54980;BME280;44101;50.462;30.432;2022-10-17T13:21:06;101932.41;;;15.68;44.66
54980;BME280;44101;50.462;30.432;2022-10-17T13:23:38;101909.81;;;15.67;45.27
54980;BME280;44101;50.462;30.432;2022-10-17T13:26:16;101937.88;;;15.78;45.18
54980;BME280;44101;50.462;30.432;2022-10-17T13:28:48;101968.34;;;15.91;44.56
54980;BME280;44101;50.462;30.432;2022-10-17T13:31:34;101944.00;;;15.90;44.95
54980;BME280;44101;50.462;30.432;2022-10-17T13:34:02;101926.09;;;15.87;44.38
54980;BME280;44101;50.462;30.432;2022-10-17T13:36:30;101937.28;;;15.94;44.41
54980;BME280;44101;50.462;30.432;2022-10-17T13:38:59;101969.78;;;16.05;44.20
54980;BME280;44101;50.462;30.432;2022-10-17T13:41:28;101973.63;;;16.12;44.07
54980;BME280;44101;50.462;30.432;2022-10-17T13:43:55;101979.50;;;16.18;43.95
54980;BME280;44101;50.462;30.432;2022-10-17T13:46:32;101995.94;;;16.26;44.55
54980;BME280;44101;50.462;30.432;2022-10-17T13:48:59;102007.13;;;16.33;44.49
54980;BME280;44101;50.462;30.432;2022-10-17T13:51:33;102016.41;;;16.40;43.60
54980;BME280;44101;50.462;30.432;2022-10-17T13:53:59;102282.03;;;17.13;44.21
54980;BME280;44101;50.462;30.432;2022-10-17T13:56:26;102646.91;;;18.10;43.72
54980;BME280;44101;50.462;30.432;2022-10-17T13:59:18;102965.72;;;19.00;44.09
54980;BME280;44101;50.462;30.432;2022-10-17T14:01:47;103279.06;;;19.86;44.10
54980;BME280;44101;50.462;30.432;2022-10-17T14:04:15;103495.44;;;20.48;43.86
54980;BME280;44101;50.462;30.432;2022-10-17T14:06:42;103470.50;;;20.51;43.42
54980;BME280;44101;50.462;30.432;2022-10-17T14:12:01;103417.81;;;20.58;43.07
54980;BME280;44101;50.462;30.432;2022-10-17T14:14:28;103438.34;;;20.73;42.87
54980;BME280;44101;50.462;30.432;2022-10-17T14:16:54;103369.59;;;20.65;42.57
54980;BME280;44101;50.462;30.432;2022-10-17T14:19:29;103227.63;;;20.39;42.04
54980;BME280;44101;50.462;30.432;2022-10-17T14:22:23;102939.59;;;19.74;42.09
54980;BME280;44101;50.462;30.432;2022-10-17T14:24:49;102731.41;;;19.28;42.19
54980;BME280;44101;50.462;30.432;2022-10-17T14:29:57;102215.22;;;18.11;42.04
54980;BME280;44101;50.462;30.432;2022-10-17T14:32:27;102068.47;;;17.77;41.76
54980;BME280;44101;50.462;30.432;2022-10-17T14:34:55;101871.25;;;17.30;41.29
54980;BME280;44101;50.462;30.432;2022-10-17T14:37:37;101711.25;;;16.94;41.55
54980;BME280;44101;50.462;30.432;2022-10-17T14:40:05;101560.66;;;16.58;41.91
54980;BME280;44101;50.462;30.432;2022-10-17T14:42:32;101497.41;;;16.46;41.43
54980;BME280;44101;50.462;30.432;2022-10-17T14:45:07;101516.69;;;16.52;41.42
54980;BME280;44101;50.462;30.432;2022-10-17T14:47:33;101472.38;;;16.42;41.17
54980;BME280;44101;50.462;30.432;2022-10-17T14:50:20;101470.16;;;16.46;41.83
54980;BME280;44101;50.462;30.432;2022-10-17T14:55:37;101214.66;;;15.81;41.15
54980;BME280;44101;50.462;30.432;2022-10-17T14:58:23;101118.16;;;15.59;41.59
54980;BME280;44101;50.462;30.432;2022-10-17T15:00:49;101049.44;;;15.40;41.29
54980;BME280;44101;50.462;30.432;2022-10-17T15:03:15;100961.72;;;15.22;41.94
54980;BME280;44101;50.462;30.432;2022-10-17T15:05:44;100916.69;;;15.11;42.01
54980;BME280;44101;50.462;30.432;2022-10-17T15:08:13;100863.84;;;14.97;41.87
54980;BME280;44101;50.462;30.432;2022-10-17T15:10:39;100820.69;;;14.85;41.52
54980;BME280;44101;50.462;30.432;2022-10-17T15:13:07;100773.09;;;14.73;41.47
54980;BME280;44101;50.462;30.432;2022-10-17T15:15:34;100729.13;;;14.61;42.04
54980;BME280;44101;50.462;30.432;2022-10-17T15:18:00;100662.09;;;14.45;42.15
54980;BME280;44101;50.462;30.432;2022-10-17T15:20:27;100643.78;;;14.38;41.93
54980;BME280;44101;50.462;30.432;2022-10-17T15:22:56;100588.09;;;14.26;41.92
54980;BME280;44101;50.462;30.432;2022-10-17T15:25:22;100576.06;;;14.20;41.56
54980;BME280;44101;50.462;30.432;2022-10-17T15:27:48;100550.47;;;14.15;42.12
54980;BME280;44101;50.462;30.432;2022-10-17T15:30:31;100515.34;;;14.05;41.67
54980;BME280;44101;50.462;30.432;2022-10-17T15:32:59;100495.19;;;13.99;41.81
54980;BME280;44101;50.462;30.432;2022-10-17T15:35:25;100481.09;;;13.95;41.84
54980;BME280;44101;50.462;30.432;2022-10-17T15:37:51;100466.34;;;13.90;42.37
54980;BME280;44101;50.462;30.432;2022-10-17T15:40:26;100440.94;;;13.82;41.58
54980;BME280;44101;50.462;30.432;2022-10-17T15:42:55;100430.44;;;13.79;42.08
54980;BME280;44101;50.462;30.432;2022-10-17T15:45:21;100430.59;;;13.78;42.39
54980;BME280;44101;50.462;30.432;2022-10-17T15:47:55;100414.84;;;13.73;42.41
54980;BME280;44101;50.462;30.432;2022-10-17T15:50:23;100407.03;;;13.70;42.21
54980;BME280;44101;50.462;30.432;2022-10-17T15:52:49;100392.81;;;13.68;41.79
54980;BME280;44101;50.462;30.432;2022-10-17T15:55:15;100400.94;;;13.68;42.23
54980;BME280;44101;50.462;30.432;2022-10-17T15:57:43;100403.50;;;13.69;42.06
54980;BME280;44101;50.462;30.432;2022-10-17T16:00:18;100406.38;;;13.68;41.83
54980;BME280;44101;50.462;30.432;2022-10-17T16:02:44;100404.69;;;13.67;41.83
54980;BME280;44101;50.462;30.432;2022-10-17T16:07:44;100385.19;;;13.63;42.41
54980;BME280;44101;50.462;30.432;2022-10-17T16:10:14;100396.19;;;13.62;41.94
54980;BME280;44101;50.462;30.432;2022-10-17T16:12:41;100401.78;;;13.60;42.76
54980;BME280;44101;50.462;30.432;2022-10-17T16:15:15;100387.56;;;13.58;42.31
54980;BME280;44101;50.462;30.432;2022-10-17T16:17:41;100377.03;;;13.55;42.52
54980;BME280;44101;50.462;30.432;2022-10-17T16:20:11;100357.56;;;13.51;42.11
54980;BME280;44101;50.462;30.432;2022-10-17T16:22:38;100355.22;;;13.48;42.44
54980;BME280;44101;50.462;30.432;2022-10-17T16:25:18;100348.22;;;13.45;42.41
54980;BME280;44101;50.462;30.432;2022-10-17T16:27:47;100341.44;;;13.41;42.31
54980;BME280;44101;50.462;30.432;2022-10-17T16:30:14;100321.97;;;13.38;42.16
54980;BME280;44101;50.462;30.432;2022-10-17T16:32:39;100324.00;;;13.36;42.59
54980;BME280;44101;50.462;30.432;2022-10-17T16:35:06;100304.00;;;13.28;42.57
54980;BME280;44101;50.462;30.432;2022-10-17T16:37:32;100293.53;;;13.25;43.07
54980;BME280;44101;50.462;30.432;2022-10-17T16:39:58;100272.38;;;13.21;42.84
54980;BME280;44101;50.462;30.432;2022-10-17T16:42:25;100271.66;;;13.18;42.37
54980;BME280;44101;50.462;30.432;2022-10-17T16:44:51;100260.31;;;13.15;43.03
54980;BME280;44101;50.462;30.432;2022-10-17T16:47:17;100255.06;;;13.13;42.36
54980;BME280;44101;50.462;30.432;2022-10-17T16:49:43;100252.72;;;13.10;42.81
54980;BME280;44101;50.462;30.432;2022-10-17T16:52:09;100251.03;;;13.09;42.62
54980;BME280;44101;50.462;30.432;2022-10-17T16:54:35;100254.56;;;13.10;42.47
54980;BME280;44101;50.462;30.432;2022-10-17T16:57:01;100252.00;;;13.08;43.28
54980;BME280;44101;50.462;30.432;2022-10-17T16:59:27;100259.97;;;13.10;42.96
54980;BME280;44101;50.462;30.432;2022-10-17T17:01:53;100251.34;;;13.06;42.84
54980;BME280;44101;50.462;30.432;2022-10-17T17:04:19;100240.00;;;13.02;43.04
54980;BME280;44101;50.462;30.432;2022-10-17T17:06:44;100238.47;;;13.00;43.15
54980;BME280;44101;50.462;30.432;2022-10-17T17:09:10;100228.00;;;12.97;42.85
54980;BME280;44101;50.462;30.432;2022-10-17T17:11:36;100223.78;;;12.94;43.41
54980;BME280;44101;50.462;30.432;2022-10-17T17:14:02;100229.19;;;12.94;42.83
54980;BME280;44101;50.462;30.432;2022-10-17T17:16:29;100235.44;;;12.95;42.80
54980;BME280;44101;50.462;30.432;2022-10-17T17:18:58;100220.56;;;12.90;42.79
54980;BME280;44101;50.462;30.432;2022-10-17T17:21:25;100210.22;;;12.86;43.18
54980;BME280;44101;50.462;30.432;2022-10-17T17:23:52;100192.63;;;12.82;42.84
54980;BME280;44101;50.462;30.432;2022-10-17T17:26:20;100194.47;;;12.81;43.41
54980;BME280;44101;50.462;30.432;2022-10-17T17:28:46;100186.69;;;12.78;43.47
54980;BME280;44101;50.462;30.432;2022-10-17T17:31:17;100195.66;;;12.78;43.33
54980;BME280;44101;50.462;30.432;2022-10-17T17:33:43;100195.66;;;12.78;43.24
54980;BME280;44101;50.462;30.432;2022-10-17T17:36:15;100195.81;;;12.77;43.15
54980;BME280;44101;50.462;30.432;2022-10-17T17:38:42;100191.59;;;12.74;43.87
54980;BME280;44101;50.462;30.432;2022-10-17T17:41:11;100193.47;;;12.74;43.40
54980;BME280;44101;50.462;30.432;2022-10-17T17:43:38;100199.72;;;12.74;43.33
54980;BME280;44101;50.462;30.432;2022-10-17T17:46:04;100201.59;;;12.74;43.56
54980;BME280;44101;50.462;30.432;2022-10-17T17:48:30;100198.19;;;12.72;43.57
54980;BME280;44101;50.462;30.432;2022-10-17T17:50:56;100205.31;;;12.73;44.03
54980;BME280;44101;50.462;30.432;2022-10-17T17:53:21;100202.78;;;12.71;43.96
54980;BME280;44101;50.462;30.432;2022-10-17T17:55:47;100210.03;;;12.71;43.62
54980;BME280;44101;50.462;30.432;2022-10-17T17:58:13;100207.16;;;12.72;43.26
54980;BME280;44101;50.462;30.432;2022-10-17T18:00:39;100216.31;;;12.71;43.42
54980;BME280;44101;50.462;30.432;2022-10-17T18:03:05;100211.91;;;12.70;43.35
54980;BME280;44101;50.462;30.432;2022-10-17T18:05:31;100211.22;;;12.68;44.06
54980;BME280;44101;50.462;30.432;2022-10-17T18:07:57;100226.97;;;12.73;43.68
54980;BME280;44101;50.462;30.432;2022-10-17T18:10:23;100233.22;;;12.73;43.48
54980;BME280;44101;50.462;30.432;2022-10-17T18:12:48;100239.50;;;12.74;43.80
54980;BME280;44101;50.462;30.432;2022-10-17T18:15:14;100240.66;;;12.71;43.42
54980;BME280;44101;50.462;30.432;2022-10-17T18:17:40;100220.34;;;12.67;43.59
54980;BME280;44101;50.462;30.432;2022-10-17T18:20:07;100218.81;;;12.64;43.46
54980;BME280;44101;50.462;30.432;2022-10-17T18:22:32;100205.47;;;12.63;43.93
54980;BME280;44101;50.462;30.432;2022-10-17T18:25:00;100204.78;;;12.61;44.11
54980;BME280;44101;50.462;30.432;2022-10-17T18:27:26;100197.16;;;12.56;44.21
54980;BME280;44101;50.462;30.432;2022-10-17T18:29:51;100196.31;;;12.56;44.07
54980;BME280;44101;50.462;30.432;2022-10-17T18:32:17;100207.84;;;12.58;43.82
54980;BME280;44101;50.462;30.432;2022-10-17T18:34:42;100206.13;;;12.57;44.37
54980;BME280;44101;50.462;30.432;2022-10-17T18:37:08;100204.44;;;12.56;43.66
54980;BME280;44101;50.462;30.432;2022-10-17T18:39:34;100180.94;;;12.48;44.08
54980;BME280;44101;50.462;30.432;2022-10-17T18:42:00;100152.00;;;12.40;43.91
54980;BME280;44101;50.462;30.432;2022-10-17T18:44:25;100143.38;;;12.36;43.66
54980;BME280;44101;50.462;30.432;2022-10-17T18:46:51;100139.13;;;12.34;43.80
54980;BME280;44101;50.462;30.432;2022-10-17T18:49:18;100135.94;;;12.30;44.23
54980;BME280;44101;50.462;30.432;2022-10-17T18:51:45;100139.47;;;12.31;44.08
54980;BME280;44101;50.462;30.432;2022-10-17T18:54:16;100129.97;;;12.27;44.29
54980;BME280;44101;50.462;30.432;2022-10-17T18:56:45;100120.53;;;12.22;44.09
54980;BME280;44101;50.462;30.432;2022-10-17T18:59:11;100109.19;;;12.19;44.07
54980;BME280;44101;50.462;30.432;2022-10-17T19:01:36;100107.50;;;12.18;43.98
54980;BME280;44101;50.462;30.432;2022-10-17T19:04:02;100101.56;;;12.14;44.03
54980;BME280;44101;50.462;30.432;2022-10-17T19:06:29;100103.44;;;12.14;44.35
54980;BME280;44101;50.462;30.432;2022-10-17T19:09:00;100096.50;;;12.11;44.27
54980;BME280;44101;50.462;30.432;2022-10-17T19:11:27;100090.59;;;12.07;43.98
54980;BME280;44101;50.462;30.432;2022-10-17T19:13:58;100096.16;;;12.06;44.13
54980;BME280;44101;50.462;30.432;2022-10-17T19:16:28;100069.75;;;12.00;44.44
54980;BME280;44101;50.462;30.432;2022-10-17T19:18:57;100069.06;;;11.97;44.20
54980;BME280;44101;50.462;30.432;2022-10-17T19:21:23;100067.38;;;11.96;44.54
54980;BME280;44101;50.462;30.432;2022-10-17T19:23:51;100062.13;;;11.95;44.73
54980;BME280;44101;50.462;30.432;2022-10-17T19:26:18;100056.22;;;11.91;45.02
54980;BME280;44101;50.462;30.432;2022-10-17T19:28:43;100054.69;;;11.89;44.91
54980;BME280;44101;50.462;30.432;2022-10-17T19:31:09;100046.91;;;11.86;44.98
54980;BME280;44101;50.462;30.432;2022-10-17T19:33:36;100029.34;;;11.81;45.28
54980;BME280;44101;50.462;30.432;2022-10-17T19:36:06;100030.53;;;11.79;45.38
54980;BME280;44101;50.462;30.432;2022-10-17T19:38:33;100026.09;;;11.78;44.89
54980;BME280;44101;50.462;30.432;2022-10-17T19:40:59;100042.88;;;11.81;45.36
54980;BME280;44101;50.462;30.432;2022-10-17T19:43:25;100075.81;;;11.85;44.84
54980;BME280;44101;50.462;30.432;2022-10-17T19:46:03;100080.03;;;11.88;45.49
54980;BME280;44101;50.462;30.432;2022-10-17T19:48:34;100091.53;;;11.90;45.40
54980;BME280;44101;50.462;30.432;2022-10-17T19:51:05;100093.38;;;11.89;45.18
54980;BME280;44101;50.462;30.432;2022-10-17T19:53:31;100106.72;;;11.91;45.45
54980;BME280;44101;50.462;30.432;2022-10-17T19:55:57;100105.34;;;11.87;44.77
54980;BME280;44101;50.462;30.432;2022-10-17T19:58:24;100078.16;;;11.80;45.46
54980;BME280;44101;50.462;30.432;2022-10-17T20:00:52;100068.53;;;11.77;45.33
54980;BME280;44101;50.462;30.432;2022-10-17T20:03:19;100069.53;;;11.76;45.12
54980;BME280;44101;50.462;30.432;2022-10-17T20:05:45;100063.44;;;11.74;45.51
54980;BME280;44101;50.462;30.432;2022-10-17T20:08:11;100068.00;;;11.74;45.79
54980;BME280;44101;50.462;30.432;2022-10-17T20:10:37;100088.63;;;11.75;44.80
54980;BME280;44101;50.462;30.432;2022-10-17T20:13:03;100086.22;;;11.71;45.01
54980;BME280;44101;50.462;30.432;2022-10-17T20:15:29;100073.72;;;11.70;45.52
54980;BME280;44101;50.462;30.432;2022-10-17T20:17:55;100064.09;;;11.68;45.00
54980;BME280;44101;50.462;30.432;2022-10-17T20:20:20;100072.38;;;11.66;45.66
54980;BME280;44101;50.462;30.432;2022-10-17T20:22:47;100070.84;;;11.64;45.43
54980;BME280;44101;50.462;30.432;2022-10-17T20:25:13;100063.06;;;11.61;45.52
54980;BME280;44101;50.462;30.432;2022-10-17T20:27:38;100043.63;;;11.57;45.80
54980;BME280;44101;50.462;30.432;2022-10-17T20:30:04;100044.81;;;11.54;45.99
54980;BME280;44101;50.462;30.432;2022-10-17T20:32:31;100039.56;;;11.53;45.94
54980;BME280;44101;50.462;30.432;2022-10-17T20:34:59;100038.03;;;11.50;46.10
54980;BME280;44101;50.462;30.432;2022-10-17T20:37:25;100032.81;;;11.49;45.58
54980;BME280;44101;50.462;30.432;2022-10-17T20:39:50;100034.66;;;11.48;45.71
54980;BME280;44101;50.462;30.432;2022-10-17T20:42:17;100033.97;;;11.46;46.07
54980;BME280;44101;50.462;30.432;2022-10-17T20:44:46;100037.66;;;11.45;45.99
54980;BME280;44101;50.462;30.432;2022-10-17T20:47:12;100025.38;;;11.42;45.51
54980;BME280;44101;50.462;30.432;2022-10-17T20:49:37;100021.28;;;11.38;45.57
54980;BME280;44101;50.462;30.432;2022-10-17T20:52:03;100014.34;;;11.36;45.62
54980;BME280;44101;50.462;30.432;2022-10-17T20:54:28;100011.81;;;11.34;46.13
54980;BME280;44101;50.462;30.432;2022-10-17T20:56:54;100028.88;;;11.35;46.56
54980;BME280;44101;50.462;30.432;2022-10-17T20:59:20;100026.31;;;11.33;46.22
54980;BME280;44101;50.462;30.432;2022-10-17T21:01:46;100022.09;;;11.30;46.32
54980;BME280;44101;50.462;30.432;2022-10-17T21:04:12;100018.72;;;11.28;46.40
54980;BME280;44101;50.462;30.432;2022-10-17T21:06:39;100008.22;;;11.25;46.06
54980;BME280;44101;50.462;30.432;2022-10-17T21:09:05;100008.38;;;11.24;46.48
54980;BME280;44101;50.462;30.432;2022-10-17T21:11:31;100009.41;;;11.23;46.73
54980;BME280;44101;50.462;30.432;2022-10-17T21:14:02;100007.72;;;11.22;46.74
54980;BME280;44101;50.462;30.432;2022-10-17T21:16:30;100000.94;;;11.17;46.09
54980;BME280;44101;50.462;30.432;2022-10-17T21:18:57;99989.81;;;11.12;46.12
54980;BME280;44101;50.462;30.432;2022-10-17T21:21:28;99976.78;;;11.08;46.91
54980;BME280;44101;50.462;30.432;2022-10-17T21:23:57;99955.00;;;11.01;46.25
54980;BME280;44101;50.462;30.432;2022-10-17T21:26:25;99949.91;;;10.98;46.77
54980;BME280;44101;50.462;30.432;2022-10-17T21:28:51;99930.66;;;10.93;46.46
54980;BME280;44101;50.462;30.432;2022-10-17T21:31:22;99934.53;;;10.90;46.85
54980;BME280;44101;50.462;30.432;2022-10-17T21:33:54;99938.06;;;10.90;46.42
54980;BME280;44101;50.462;30.432;2022-10-17T21:36:21;99960.03;;;10.96;46.68
54980;BME280;44101;50.462;30.432;2022-10-17T21:38:48;99975.38;;;10.95;47.26
54980;BME280;44101;50.462;30.432;2022-10-17T21:41:15;99974.34;;;10.96;46.48
54980;BME280;44101;50.462;30.432;2022-10-17T21:43:41;99983.47;;;10.95;46.80
54980;BME280;44101;50.462;30.432;2022-10-17T21:46:12;99986.16;;;10.95;47.30
54980;BME280;44101;50.462;30.432;2022-10-17T21:48:39;99995.13;;;10.96;47.40
54980;BME280;44101;50.462;30.432;2022-10-17T21:51:08;99988.19;;;10.93;46.76
54980;BME280;44101;50.462;30.432;2022-10-17T21:53:34;99997.97;;;10.94;47.09
54980;BME280;44101;50.462;30.432;2022-10-17T21:56:01;99989.34;;;10.90;47.25
54980;BME280;44101;50.462;30.432;2022-10-17T21:58:27;99977.19;;;10.86;47.43
54980;BME280;44101;50.462;30.432;2022-10-17T22:01:04;99982.59;;;10.86;47.23
54980;BME280;44101;50.462;30.432;2022-10-17T22:03:35;99976.66;;;10.83;47.28
54980;BME280;44101;50.462;30.432;2022-10-17T22:06:02;99966.22;;;10.80;47.83
54980;BME280;44101;50.462;30.432;2022-10-17T22:08:29;99963.81;;;10.76;47.54
54980;BME280;44101;50.462;30.432;2022-10-17T22:10:56;99947.25;;;10.71;47.61
54980;BME280;44101;50.462;30.432;2022-10-17T22:13:21;99946.75;;;10.68;47.90
54980;BME280;44101;50.462;30.432;2022-10-17T22:15:47;99942.34;;;10.67;47.73
54980;BME280;44101;50.462;30.432;2022-10-17T22:18:13;99949.59;;;10.66;47.27
54980;BME280;44101;50.462;30.432;2022-10-17T22:20:38;99948.75;;;10.66;48.00
54980;BME280;44101;50.462;30.432;2022-10-17T22:23:04;99948.91;;;10.64;47.83
54980;BME280;44101;50.462;30.432;2022-10-17T22:25:29;99934.91;;;10.60;47.72
54980;BME280;44101;50.462;30.432;2022-10-17T22:27:55;99933.53;;;10.56;48.29
54980;BME280;44101;50.462;30.432;2022-10-17T22:30:21;99932.69;;;10.56;47.56
54980;BME280;44101;50.462;30.432;2022-10-17T22:32:46;99929.47;;;10.52;48.09
54980;BME280;44101;50.462;30.432;2022-10-17T22:35:12;99923.38;;;10.50;48.35
54980;BME280;44101;50.462;30.432;2022-10-17T22:37:38;99923.56;;;10.48;48.54
54980;BME280;44101;50.462;30.432;2022-10-17T22:40:05;99916.78;;;10.44;48.25
54980;BME280;44101;50.462;30.432;2022-10-17T22:42:30;99909.81;;;10.42;47.62
54980;BME280;44101;50.462;30.432;2022-10-17T22:44:59;99900.34;;;10.38;47.70
54980;BME280;44101;50.462;30.432;2022-10-17T22:47:27;99899.53;;;10.37;48.45
54980;BME280;44101;50.462;30.432;2022-10-17T22:49:53;99925.16;;;10.41;48.01
54980;BME280;44101;50.462;30.432;2022-10-17T22:52:35;99920.91;;;10.39;48.29
54980;BME280;44101;50.462;30.432;2022-10-17T22:55:00;99919.38;;;10.36;48.31
54980;BME280;44101;50.462;30.432;2022-10-17T22:57:26;99914.31;;;10.33;48.57
54980;BME280;44101;50.462;30.432;2022-10-17T22:59:51;99908.94;;;10.33;48.02
54980;BME280;44101;50.462;30.432;2022-10-17T23:02:17;99920.72;;;10.32;48.17
54980;BME280;44101;50.462;30.432;2022-10-17T23:04:42;99912.78;;;10.30;48.20
54980;BME280;44101;50.462;30.432;2022-10-17T23:07:08;99915.63;;;10.29;48.61
54980;BME280;44101;50.462;30.432;2022-10-17T23:09:39;99900.81;;;10.25;48.83
54980;BME280;44101;50.462;30.432;2022-10-17T23:12:05;99907.16;;;10.23;48.31
54980;BME280;44101;50.462;30.432;2022-10-17T23:14:31;99899.56;;;10.19;49.03
54980;BME280;44101;50.462;30.432;2022-10-17T23:16:56;99893.50;;;10.17;49.19
54980;BME280;44101;50.462;30.432;2022-10-17T23:19:22;99898.03;;;10.16;49.39
54980;BME280;44101;50.462;30.432;2022-10-17T23:21:48;99905.13;;;10.17;48.97
54980;BME280;44101;50.462;30.432;2022-10-17T23:24:13;99892.97;;;10.13;49.40
54980;BME280;44101;50.462;30.432;2022-10-17T23:26:39;99892.44;;;10.09;48.70
54980;BME280;44101;50.462;30.432;2022-10-17T23:29:05;99902.22;;;10.11;49.57
54980;BME280;44101;50.462;30.432;2022-10-17T23:31:30;99890.06;;;10.06;48.82
54980;BME280;44101;50.462;30.432;2022-10-17T23:33:57;99902.53;;;10.07;49.47
54980;BME280;44101;50.462;30.432;2022-10-17T23:36:23;99901.69;;;10.07;48.88
54980;BME280;44101;50.462;30.432;2022-10-17T23:38:48;99900.16;;;10.04;49.48
54980;BME280;44101;50.462;30.432;2022-10-17T23:41:15;99886.16;;;10.01;49.77
54980;BME280;44101;50.462;30.432;2022-10-17T23:43:42;99891.53;;;10.01;49.33
54980;BME280;44101;50.462;30.432;2022-10-17T23:46:08;99887.47;;;9.96;49.48
54980;BME280;44101;50.462;30.432;2022-10-17T23:48:33;99879.53;;;9.95;49.21
54980;BME280;44101;50.462;30.432;2022-10-17T23:50:59;99888.63;;;9.94;49.95
54980;BME280;44101;50.462;30.432;2022-10-17T23:53:25;99896.56;;;9.95;49.16
54980;BME280;44101;50.462;30.432;2022-10-17T23:55:51;99903.78;;;9.95;49.93
54980;BME280;44101;50.462;30.432;2022-10-17T23:58:17;99887.94;;;9.92;49.70
